Robin — LM6297 — position and weather

sailwx.info

Track history (hours):
 
Tides and Currents Weather Stations Pressure Air Temp Water Temp Dewpoint Dewpoint Depression Visibility Wind Speed Wind Dir Waves Ship Positions

Robin

Last reported at 2017-Nov-14 12:54 UTC. Time now 2017-Nov-18 14:21 UTC.
Position N 69°57' E 018°40'.

Length 13 m.

Type: Fishing. MMSI: 257327120.

Date/timePositionNaut miles runAvg speedWind from/ knotsBaromVisibWave heightAir tempDewpointWater temp
2017-Nov-14 12:54N 69°57' E 018°40'3 7.7
2017-Nov-14 12:29N 69°54' E 018°44'4 7.0
2017-Nov-14 11:59N 69°51' E 018°49'0 0.0
2017-Nov-14 11:29N 69°51' E 018°49'0 0.0
2017-Nov-14 10:59N 69°51' E 018°49'0 0.0
2017-Nov-14 10:30N 69°51' E 018°49'0 0.0
2017-Nov-14 09:48N 69°51' E 018°49'0 0.0
2017-Nov-14 09:30N 69°51' E 018°49'0 0.0
2017-Nov-14 09:00N 69°51' E 018°49'0 0.0
2017-Nov-14 08:30N 69°51' E 018°49'0 0.0
2017-Nov-14 08:00N 69°51' E 018°49'0 0.0
2017-Nov-14 06:51N 69°51' E 018°49'0 0.0
2017-Nov-14 06:30N 69°51' E 018°49'0 0.0
2017-Nov-14 05:00N 69°51' E 018°49'0 0.0
2017-Nov-14 04:24N 69°51' E 018°49'0 0.0
2017-Nov-14 03:24N 69°51' E 018°49'0 0.0
2017-Nov-14 00:54N 69°51' E 018°49'0 0.0
2017-Nov-14 00:30N 69°51' E 018°49'0 0.0
2017-Nov-13 23:48N 69°51' E 018°49'0 0.0
2017-Nov-13 23:12N 69°51' E 018°49'0 0.0
2017-Nov-13 22:30N 69°51' E 018°49'0 0.0
2017-Nov-13 22:00N 69°51' E 018°49'40 2.0
2017-Nov-13 02:00N 70°02' E 020°43'4 8.1
2017-Nov-13 01:30N 70°03' E 020°54'25 0.6
2017-Nov-11 08:01N 70°26' E 021°22'0 8.0
2017-Nov-11 07:59N 70°26' E 021°23'4 7.7
2017-Nov-11 07:30N 70°23' E 021°28'2 3.7
2017-Nov-11 06:59N 70°21' E 021°27'0 0.0
2017-Nov-11 06:29N 70°21' E 021°27'0 0.0
2017-Nov-11 05:59N 70°21' E 021°27'0 0.0
2017-Nov-11 05:29N 70°21' E 021°27'0 0.0
2017-Nov-11 04:59N 70°21' E 021°27'0 0.0
2017-Nov-11 04:29N 70°21' E 021°27'  
2017-Nov-08 11:49N 70°02' E 020°59'0 0.0
2017-Nov-07 22:22N 70°02' E 020°58'2 5.7
2017-Nov-07 22:00N 70°01' E 021°04'0 0.7
2017-Nov-07 21:28N 70°01' E 021°03'0 0.3
2017-Nov-07 20:59N 70°01' E 021°04'2 1.4
2017-Nov-07 19:43N 70°02' E 020°59'1 6.4
2017-Nov-07 19:30N 70°01' E 021°02'0 0.7
2017-Nov-07 19:00N 70°01' E 021°03'1 1.9
2017-Nov-07 18:30N 70°02' E 021°01'2 3.2
2017-Nov-07 17:54N 70°04' E 021°01'3 7.0
2017-Nov-07 17:30N 70°02' E 020°53'4 7.7
2017-Nov-07 17:00N 70°02' E 020°42'4 7.9
2017-Nov-07 16:30N 70°01' E 020°31'4 7.8
2017-Nov-07 15:59N 69°59' E 020°20'4 7.8
2017-Nov-07 15:30N 69°58' E 020°10'4 8.2
2017-Nov-07 15:00N 69°55' E 020°01'25 0.5
2017-Nov-05 16:02N 69°52' E 018°50'0 6.3
2017-Nov-05 16:00N 69°52' E 018°50'1 1.7
2017-Nov-05 15:27N 69°51' E 018°49'0 0.0
2017-Nov-05 14:54N 69°51' E 018°49'0 0.0
2017-Nov-05 14:30N 69°51' E 018°49'0 0.0
2017-Nov-05 14:00N 69°51' E 018°49'0 0.0
2017-Nov-05 13:30N 69°51' E 018°49'0 0.0
2017-Nov-05 13:00N 69°51' E 018°49'0 0.0
2017-Nov-05 11:21N 69°51' E 018°49'0 0.0
2017-Nov-05 10:57N 69°51' E 018°49'0 0.0
2017-Nov-05 10:30N 69°51' E 018°49'0 0.0
2017-Nov-05 10:00N 69°51' E 018°49'0 0.0
2017-Nov-05 08:39N 69°51' E 018°49'0 0.0
2017-Nov-05 08:30N 69°51' E 018°49'0 0.0
2017-Nov-05 08:00N 69°51' E 018°49'0 0.0
2017-Nov-05 07:30N 69°51' E 018°49'0 0.0
2017-Nov-05 06:57N 69°51' E 018°49'0 0.0
2017-Nov-05 06:18N 69°51' E 018°49'0 0.0
2017-Nov-05 06:00N 69°51' E 018°49'0 0.0
2017-Nov-05 05:27N 69°51' E 018°49'0 0.0
2017-Nov-05 04:57N 69°51' E 018°49'0 0.0
2017-Nov-05 04:30N 69°51' E 018°49'0 0.0
2017-Nov-05 04:00N 69°51' E 018°49'0 0.0
2017-Nov-05 03:30N 69°51' E 018°49'0 0.0
2017-Nov-05 03:00N 69°51' E 018°49'0 0.0
2017-Nov-05 02:27N 69°51' E 018°49'0 0.0
2017-Nov-05 02:00N 69°51' E 018°49'0 0.0
2017-Nov-05 01:27N 69°51' E 018°49'0 0.0
2017-Nov-05 00:57N 69°51' E 018°49'0 0.0
2017-Nov-05 00:24N 69°51' E 018°49'0 0.0
2017-Nov-05 00:00N 69°51' E 018°49'0 0.0
2017-Nov-04 23:27N 69°51' E 018°49'0 0.0
2017-Nov-04 22:57N 69°51' E 018°49'0 0.0
2017-Nov-04 22:30N 69°51' E 018°49'0 0.0
2017-Nov-04 22:00N 69°51' E 018°49'0 0.0
2017-Nov-04 21:30N 69°51' E 018°49'0 0.0
2017-Nov-04 20:57N 69°51' E 018°49'0 0.0
2017-Nov-04 20:21N 69°51' E 018°49'0 0.0
2017-Nov-04 20:00N 69°51' E 018°49'0 0.0
2017-Nov-04 19:21N 69°51' E 018°49'0 0.0
2017-Nov-04 19:00N 69°51' E 018°49'0 0.0
2017-Nov-04 18:27N 69°51' E 018°49'0 0.0
2017-Nov-04 18:00N 69°51' E 018°49'0 0.0
2017-Nov-04 17:30N 69°51' E 018°49'0 0.0
2017-Nov-04 16:57N 69°51' E 018°49'0 0.0
2017-Nov-04 16:21N 69°51' E 018°49'0 0.0
2017-Nov-04 16:00N 69°51' E 018°49'0 0.0
2017-Nov-04 15:30N 69°51' E 018°49'0 0.0
2017-Nov-04 14:57N 69°51' E 018°49'0 0.0
2017-Nov-04 14:30N 69°51' E 018°49'0 0.0
2017-Nov-04 14:00N 69°51' E 018°49'  
Track history (hours):
 
Tides and Currents Weather Stations Pressure Air Temp Water Temp Dewpoint Dewpoint Depression Visibility Wind Speed Wind Dir Waves Ship Positions

Robin

Last reported at 2017-Nov-14 12:54 UTC. Time now 2017-Nov-18 14:21 UTC.
Position N 69°57' E 018°40'.

Length 13 m.

Type: Fishing. MMSI: 257327120.

Date/timePositionNaut miles runAvg speedWind from/ knotsBaromVisibWave heightAir tempDewpointWater temp
2017-Nov-14 12:54N 69°57' E 018°40'3 7.7
2017-Nov-14 12:29N 69°54' E 018°44'4 7.0
2017-Nov-14 11:59N 69°51' E 018°49'0 0.0
2017-Nov-14 11:29N 69°51' E 018°49'0 0.0
2017-Nov-14 10:59N 69°51' E 018°49'0 0.0
2017-Nov-14 10:30N 69°51' E 018°49'0 0.0
2017-Nov-14 09:48N 69°51' E 018°49'0 0.0
2017-Nov-14 09:30N 69°51' E 018°49'0 0.0
2017-Nov-14 09:00N 69°51' E 018°49'0 0.0
2017-Nov-14 08:30N 69°51' E 018°49'0 0.0
2017-Nov-14 08:00N 69°51' E 018°49'0 0.0
2017-Nov-14 06:51N 69°51' E 018°49'0 0.0
2017-Nov-14 06:30N 69°51' E 018°49'0 0.0
2017-Nov-14 05:00N 69°51' E 018°49'0 0.0
2017-Nov-14 04:24N 69°51' E 018°49'0 0.0
2017-Nov-14 03:24N 69°51' E 018°49'0 0.0
2017-Nov-14 00:54N 69°51' E 018°49'0 0.0
2017-Nov-14 00:30N 69°51' E 018°49'0 0.0
2017-Nov-13 23:48N 69°51' E 018°49'0 0.0
2017-Nov-13 23:12N 69°51' E 018°49'0 0.0
2017-Nov-13 22:30N 69°51' E 018°49'0 0.0
2017-Nov-13 22:00N 69°51' E 018°49'40 2.0
2017-Nov-13 02:00N 70°02' E 020°43'4 8.1
2017-Nov-13 01:30N 70°03' E 020°54'25 0.6
2017-Nov-11 08:01N 70°26' E 021°22'0 8.0
2017-Nov-11 07:59N 70°26' E 021°23'4 7.7
2017-Nov-11 07:30N 70°23' E 021°28'2 3.7
2017-Nov-11 06:59N 70°21' E 021°27'0 0.0
2017-Nov-11 06:29N 70°21' E 021°27'0 0.0
2017-Nov-11 05:59N 70°21' E 021°27'0 0.0
2017-Nov-11 05:29N 70°21' E 021°27'0 0.0
2017-Nov-11 04:59N 70°21' E 021°27'0 0.0
2017-Nov-11 04:29N 70°21' E 021°27'  
2017-Nov-08 11:49N 70°02' E 020°59'0 0.0
2017-Nov-07 22:22N 70°02' E 020°58'2 5.7
2017-Nov-07 22:00N 70°01' E 021°04'0 0.7
2017-Nov-07 21:28N 70°01' E 021°03'0 0.3
2017-Nov-07 20:59N 70°01' E 021°04'2 1.4
2017-Nov-07 19:43N 70°02' E 020°59'1 6.4
2017-Nov-07 19:30N 70°01' E 021°02'0 0.7
2017-Nov-07 19:00N 70°01' E 021°03'1 1.9
2017-Nov-07 18:30N 70°02' E 021°01'2 3.2
2017-Nov-07 17:54N 70°04' E 021°01'3 7.0
2017-Nov-07 17:30N 70°02' E 020°53'4 7.7
2017-Nov-07 17:00N 70°02' E 020°42'4 7.9
2017-Nov-07 16:30N 70°01' E 020°31'4 7.8
2017-Nov-07 15:59N 69°59' E 020°20'4 7.8
2017-Nov-07 15:30N 69°58' E 020°10'4 8.2
2017-Nov-07 15:00N 69°55' E 020°01'25 0.5
2017-Nov-05 16:02N 69°52' E 018°50'0 6.3
2017-Nov-05 16:00N 69°52' E 018°50'1 1.7
2017-Nov-05 15:27N 69°51' E 018°49'0 0.0
2017-Nov-05 14:54N 69°51' E 018°49'0 0.0
2017-Nov-05 14:30N 69°51' E 018°49'0 0.0
2017-Nov-05 14:00N 69°51' E 018°49'0 0.0
2017-Nov-05 13:30N 69°51' E 018°49'0 0.0
2017-Nov-05 13:00N 69°51' E 018°49'0 0.0
2017-Nov-05 11:21N 69°51' E 018°49'0 0.0
2017-Nov-05 10:57N 69°51' E 018°49'0 0.0
2017-Nov-05 10:30N 69°51' E 018°49'0 0.0
2017-Nov-05 10:00N 69°51' E 018°49'0 0.0
2017-Nov-05 08:39N 69°51' E 018°49'0 0.0
2017-Nov-05 08:30N 69°51' E 018°49'0 0.0
2017-Nov-05 08:00N 69°51' E 018°49'0 0.0
2017-Nov-05 07:30N 69°51' E 018°49'0 0.0
2017-Nov-05 06:57N 69°51' E 018°49'0 0.0
2017-Nov-05 06:18N 69°51' E 018°49'0 0.0
2017-Nov-05 06:00N 69°51' E 018°49'0 0.0
2017-Nov-05 05:27N 69°51' E 018°49'0 0.0
2017-Nov-05 04:57N 69°51' E 018°49'0 0.0
2017-Nov-05 04:30N 69°51' E 018°49'0 0.0
2017-Nov-05 04:00N 69°51' E 018°49'0 0.0
2017-Nov-05 03:30N 69°51' E 018°49'0 0.0
2017-Nov-05 03:00N 69°51' E 018°49'0 0.0
2017-Nov-05 02:27N 69°51' E 018°49'0 0.0
2017-Nov-05 02:00N 69°51' E 018°49'0 0.0
2017-Nov-05 01:27N 69°51' E 018°49'0 0.0
2017-Nov-05 00:57N 69°51' E 018°49'0 0.0
2017-Nov-05 00:24N 69°51' E 018°49'0 0.0
2017-Nov-05 00:00N 69°51' E 018°49'0 0.0
2017-Nov-04 23:27N 69°51' E 018°49'0 0.0
2017-Nov-04 22:57N 69°51' E 018°49'0 0.0
2017-Nov-04 22:30N 69°51' E 018°49'0 0.0
2017-Nov-04 22:00N 69°51' E 018°49'0 0.0
2017-Nov-04 21:30N 69°51' E 018°49'0 0.0
2017-Nov-04 20:57N 69°51' E 018°49'0 0.0
2017-Nov-04 20:21N 69°51' E 018°49'0 0.0
2017-Nov-04 20:00N 69°51' E 018°49'0 0.0
2017-Nov-04 19:21N 69°51' E 018°49'0 0.0
2017-Nov-04 19:00N 69°51' E 018°49'0 0.0
2017-Nov-04 18:27N 69°51' E 018°49'0 0.0
2017-Nov-04 18:00N 69°51' E 018°49'0 0.0
2017-Nov-04 17:30N 69°51' E 018°49'0 0.0
2017-Nov-04 16:57N 69°51' E 018°49'0 0.0
2017-Nov-04 16:21N 69°51' E 018°49'0 0.0
2017-Nov-04 16:00N 69°51' E 018°49'0 0.0
2017-Nov-04 15:30N 69°51' E 018°49'0 0.0
2017-Nov-04 14:57N 69°51' E 018°49'0 0.0
2017-Nov-04 14:30N 69°51' E 018°49'0 0.0
2017-Nov-04 14:00N 69°51' E 018°49'  

Dump ship's entire track history